createdAt,value
2018-09-21T00:01:27.569Z,19.10
2018-09-21T00:03:55.854Z,19.12
2018-09-21T00:06:24.158Z,19.04
2018-09-21T00:08:52.442Z,18.86
2018-09-21T00:11:20.745Z,18.74
2018-09-21T00:13:49.052Z,18.81
2018-09-21T00:16:17.340Z,18.67
2018-09-21T00:18:45.621Z,18.69
2018-09-21T00:21:13.926Z,18.66
2018-09-21T00:23:42.223Z,18.46
2018-09-21T00:26:10.522Z,18.43
2018-09-21T00:28:38.833Z,18.52
2018-09-21T00:31:07.126Z,18.39
2018-09-21T00:33:35.418Z,18.40
2018-09-21T00:36:03.732Z,18.55
2018-09-21T00:38:32.130Z,18.53
2018-09-21T00:41:00.613Z,18.61
2018-09-21T00:43:28.935Z,18.60
2018-09-21T00:45:57.222Z,18.44
2018-09-21T00:48:25.538Z,18.35
2018-09-21T00:50:53.847Z,18.27
2018-09-21T00:53:22.146Z,18.32
2018-09-21T00:55:50.454Z,18.47
2018-09-21T00:58:18.754Z,18.52
2018-09-21T01:00:47.050Z,18.63
2018-09-21T01:03:15.348Z,18.68
2018-09-21T01:05:43.666Z,18.73
2018-09-21T01:08:11.955Z,18.72
2018-09-21T01:10:40.251Z,18.62
2018-09-21T01:13:08.574Z,18.60
2018-09-21T01:15:36.886Z,18.66
2018-09-21T01:18:05.190Z,18.46
2018-09-21T01:20:33.499Z,18.44
2018-09-21T01:23:01.800Z,18.21
2018-09-21T01:25:30.096Z,18.27
2018-09-21T01:27:58.406Z,18.27
2018-09-21T01:30:26.703Z,18.28
2018-09-21T01:32:55.027Z,18.16
2018-09-21T01:35:23.339Z,18.09
2018-09-21T01:37:51.635Z,18.05
2018-09-21T01:40:19.939Z,18.06
2018-09-21T01:42:48.243Z,17.99
2018-09-21T01:45:16.534Z,17.96
2018-09-21T01:47:45.654Z,17.97
2018-09-21T01:50:13.962Z,17.89
2018-09-21T01:52:42.271Z,17.91
2018-09-21T01:55:10.566Z,18.01
2018-09-21T01:57:38.886Z,17.89
2018-09-21T02:00:07.188Z,17.85
2018-09-21T02:02:35.483Z,17.86
2018-09-21T02:05:03.802Z,17.77
2018-09-21T02:07:32.099Z,17.77
2018-09-21T02:10:00.392Z,17.80
2018-09-21T02:12:28.702Z,17.94
2018-09-21T02:14:56.987Z,17.85
2018-09-21T02:17:25.282Z,17.84
2018-09-21T02:19:53.610Z,17.84
2018-09-21T02:22:21.906Z,17.70
2018-09-21T02:24:50.223Z,17.72
2018-09-21T02:27:18.530Z,17.69
2018-09-21T02:29:46.826Z,17.71
2018-09-21T02:32:15.117Z,17.66
2018-09-21T02:34:43.434Z,17.76
2018-09-21T02:37:11.718Z,17.72
2018-09-21T02:39:40.011Z,17.77
2018-09-21T02:42:08.315Z,17.84
2018-09-21T02:44:36.606Z,17.76
2018-09-21T02:47:04.907Z,17.73
2018-09-21T02:49:33.212Z,17.74
2018-09-21T02:52:01.511Z,17.73
2018-09-21T02:54:29.805Z,17.71
2018-09-21T02:56:58.115Z,17.64
2018-09-21T02:59:26.409Z,17.63
2018-09-21T03:01:54.706Z,17.58
2018-09-21T03:04:23.015Z,17.56
2018-09-21T03:06:51.316Z,17.50
2018-09-21T03:09:19.602Z,17.43
2018-09-21T03:11:47.905Z,17.57
2018-09-21T03:14:16.205Z,17.45
2018-09-21T03:16:44.512Z,17.42
2018-09-21T03:19:12.824Z,17.23
2018-09-21T03:21:41.107Z,17.31
2018-09-21T03:24:09.399Z,17.27
2018-09-21T03:26:37.714Z,17.32
2018-09-21T03:29:06.003Z,17.16
2018-09-21T03:31:34.286Z,17.12
2018-09-21T03:34:02.598Z,17.02
2018-09-21T03:36:30.902Z,17.03
2018-09-21T03:38:59.182Z,16.97
2018-09-21T03:41:27.491Z,17.01
2018-09-21T03:43:55.779Z,16.81
2018-09-21T03:46:24.079Z,16.98
2018-09-21T03:48:52.374Z,17.06
2018-09-21T03:51:20.665Z,17.07
2018-09-21T03:53:48.958Z,17.08
2018-09-21T03:56:17.259Z,17.09
2018-09-21T03:58:45.557Z,17.27
2018-09-21T04:01:13.871Z,17.29
2018-09-21T04:03:42.143Z,17.41
2018-09-21T04:06:10.432Z,17.50
2018-09-21T04:08:38.722Z,17.56
2018-09-21T04:11:07.063Z,17.61
2018-09-21T04:13:35.356Z,17.59
2018-09-21T04:16:03.643Z,17.63
2018-09-21T04:18:31.952Z,17.67
2018-09-21T04:21:00.248Z,17.70
2018-09-21T04:23:28.834Z,17.66
2018-09-21T04:25:57.135Z,17.66
2018-09-21T04:28:25.475Z,17.68
2018-09-21T04:30:53.775Z,17.82
2018-09-21T04:33:22.070Z,17.81
2018-09-21T04:35:51.938Z,17.91
2018-09-21T04:38:20.215Z,18.08
2018-09-21T04:40:48.527Z,18.13
2018-09-21T04:43:16.828Z,18.18
2018-09-21T04:45:45.184Z,18.26
2018-09-21T04:48:13.426Z,18.33
2018-09-21T04:50:41.722Z,18.43
2018-09-21T04:53:10.021Z,18.47
2018-09-21T04:55:38.335Z,18.48
2018-09-21T04:58:06.628Z,18.47
2018-09-21T05:00:34.948Z,18.53
2018-09-21T05:03:03.251Z,18.59
2018-09-21T05:05:31.552Z,18.56
2018-09-21T05:07:59.851Z,18.53
2018-09-21T05:10:28.159Z,18.58
2018-09-21T05:12:56.448Z,18.60
2018-09-21T05:15:24.735Z,18.66
2018-09-21T05:17:53.051Z,18.56
2018-09-21T05:20:21.347Z,18.64
2018-09-21T05:22:49.638Z,18.66
2018-09-21T05:25:17.938Z,18.68
2018-09-21T05:27:46.237Z,18.65
2018-09-21T05:30:14.522Z,18.80
2018-09-21T05:32:42.826Z,18.93
2018-09-21T05:35:11.171Z,19.04
2018-09-21T05:37:39.419Z,18.99
2018-09-21T05:40:08.294Z,18.90
2018-09-21T05:42:36.596Z,18.90
2018-09-21T05:45:04.883Z,18.64
2018-09-21T05:47:33.211Z,18.75
2018-09-21T05:50:01.506Z,18.73
2018-09-21T05:52:29.803Z,18.64
2018-09-21T05:54:58.116Z,18.66
2018-09-21T05:57:26.407Z,18.66
2018-09-21T05:59:54.710Z,18.74
2018-09-21T06:02:23.046Z,18.80
2018-09-21T06:04:51.318Z,18.78
2018-09-21T06:07:19.603Z,18.78
2018-09-21T06:09:47.927Z,18.77
2018-09-21T06:12:16.234Z,18.96
2018-09-21T06:14:44.522Z,19.29
2018-09-21T06:17:12.827Z,19.50
2018-09-21T06:19:41.156Z,19.72
2018-09-21T06:22:09.459Z,19.77
2018-09-21T06:24:37.763Z,19.80
2018-09-21T06:27:06.508Z,19.77
2018-09-21T06:29:34.815Z,19.89
2018-09-21T06:32:03.135Z,19.90
2018-09-21T06:34:31.428Z,20.25
2018-09-21T06:36:59.718Z,20.46
2018-09-21T06:39:28.023Z,20.57
2018-09-21T06:41:56.310Z,20.68
2018-09-21T06:44:24.648Z,20.83
2018-09-21T06:46:52.916Z,21.14
2018-09-21T06:49:21.202Z,21.15
2018-09-21T06:51:49.500Z,21.19
2018-09-21T06:54:17.799Z,21.47
2018-09-21T06:56:46.128Z,21.64
2018-09-21T06:59:14.418Z,21.78
2018-09-21T07:01:42.766Z,21.96
2018-09-21T07:04:11.030Z,21.98
2018-09-21T07:06:39.322Z,22.01
2018-09-21T07:09:07.632Z,22.16
2018-09-21T07:11:35.910Z,22.34
2018-09-21T07:14:04.198Z,22.45
2018-09-21T07:16:32.556Z,22.59
2018-09-21T07:19:00.807Z,22.72
2018-09-21T07:21:29.094Z,22.88
2018-09-21T07:23:57.391Z,23.05
2018-09-21T07:26:25.679Z,23.30
2018-09-21T07:28:53.998Z,23.60
2018-09-21T07:31:22.374Z,23.79
2018-09-21T07:33:50.576Z,23.98
2018-09-21T07:36:18.853Z,24.14
2018-09-21T07:38:47.146Z,24.15
2018-09-21T07:41:15.434Z,24.40
2018-09-21T07:43:43.715Z,24.50
2018-09-21T07:46:12.023Z,24.51
2018-09-21T07:48:40.295Z,24.69
2018-09-21T07:51:08.582Z,24.64
2018-09-21T07:53:36.886Z,24.55
2018-09-21T07:56:05.178Z,24.54
2018-09-21T07:58:33.466Z,24.56
2018-09-21T08:01:01.759Z,24.63
2018-09-21T08:03:30.056Z,24.67
2018-09-21T08:05:58.342Z,24.73
2018-09-21T08:08:26.641Z,24.75
2018-09-21T08:10:54.926Z,24.81
2018-09-21T08:13:23.207Z,24.80
2018-09-21T08:15:51.503Z,24.79
2018-09-21T08:18:19.798Z,24.73
2018-09-21T08:20:48.078Z,24.69
2018-09-21T08:23:16.379Z,24.85
2018-09-21T08:25:44.675Z,24.83
2018-09-21T08:28:12.954Z,24.85
2018-09-21T08:30:41.251Z,25.01
2018-09-21T08:33:09.543Z,25.09
2018-09-21T08:35:37.818Z,25.14
2018-09-21T08:38:06.137Z,25.03
2018-09-21T08:40:34.421Z,25.11
2018-09-21T08:43:02.706Z,25.09
2018-09-21T08:45:31.058Z,25.16
2018-09-21T08:47:59.284Z,25.23
2018-09-21T08:50:27.946Z,25.32
2018-09-21T08:52:56.250Z,25.37
2018-09-21T08:55:24.534Z,25.57
2018-09-21T08:57:52.825Z,25.82
2018-09-21T09:00:21.147Z,26.06
2018-09-21T09:02:49.444Z,26.12
2018-09-21T09:05:17.706Z,26.10
2018-09-21T09:07:46.003Z,26.22
2018-09-21T09:10:14.296Z,26.25
2018-09-21T09:12:42.583Z,26.30
2018-09-21T09:15:10.878Z,26.19
2018-09-21T09:17:39.158Z,26.16
2018-09-21T09:20:07.444Z,26.29
2018-09-21T09:22:35.742Z,26.36
2018-09-21T09:25:04.045Z,26.56
2018-09-21T09:27:32.323Z,26.32
2018-09-21T09:30:00.625Z,26.42
2018-09-21T09:32:28.908Z,26.34
2018-09-21T09:34:57.190Z,26.21
2018-09-21T09:37:25.491Z,26.17
2018-09-21T09:39:53.782Z,26.15
2018-09-21T09:42:22.103Z,26.34
2018-09-21T09:44:50.403Z,26.45
2018-09-21T09:47:18.719Z,26.81
2018-09-21T09:49:47.007Z,27.06
2018-09-21T09:52:15.314Z,27.25
2018-09-21T09:54:43.608Z,27.26
2018-09-21T09:57:11.887Z,27.41
2018-09-21T09:59:40.187Z,27.16
2018-09-21T10:02:08.466Z,27.12
2018-09-21T10:04:36.754Z,26.91
2018-09-21T10:07:05.059Z,26.78
2018-09-21T10:09:33.342Z,26.70
2018-09-21T10:12:01.631Z,26.92
2018-09-21T10:14:29.934Z,26.88
2018-09-21T10:16:58.223Z,26.78
2018-09-21T10:19:26.502Z,26.61
2018-09-21T10:21:54.803Z,26.75
2018-09-21T10:24:23.100Z,26.57
2018-09-21T10:26:51.433Z,26.75
2018-09-21T10:29:19.678Z,26.78
2018-09-21T10:31:47.971Z,26.60
2018-09-21T10:34:16.249Z,26.73
2018-09-21T10:36:51.291Z,26.80
2018-09-21T10:39:19.637Z,26.72
2018-09-21T10:41:47.859Z,26.78
2018-09-21T10:44:16.159Z,26.68
2018-09-21T10:46:44.451Z,26.79
2018-09-21T10:49:12.734Z,26.72
2018-09-21T10:51:41.026Z,26.75
2018-09-21T10:54:09.308Z,27.10
2018-09-21T10:56:37.591Z,27.24
2018-09-21T10:59:10.488Z,27.40
2018-09-21T11:01:52.111Z,27.53
2018-09-21T11:04:26.295Z,27.53
2018-09-21T11:06:54.594Z,27.49
2018-09-21T11:09:22.866Z,27.46
2018-09-21T11:11:51.165Z,27.17
2018-09-21T11:14:19.450Z,27.08
2018-09-21T11:16:47.731Z,26.81
2018-09-21T11:19:16.035Z,26.74
2018-09-21T11:21:44.324Z,26.69
2018-09-21T11:24:12.601Z,26.71
2018-09-21T11:26:40.894Z,26.77
2018-09-21T11:29:09.182Z,26.74
2018-09-21T11:31:37.466Z,26.77
2018-09-21T11:34:05.763Z,26.75
2018-09-21T11:36:34.042Z,26.74
2018-09-21T11:39:02.335Z,26.72
2018-09-21T11:41:30.628Z,26.72
2018-09-21T11:43:58.922Z,26.68
2018-09-21T11:46:27.203Z,26.58
2018-09-21T11:48:55.507Z,26.46
2018-09-21T11:51:23.791Z,26.37
2018-09-21T11:53:52.070Z,26.36
2018-09-21T11:56:20.362Z,26.28
2018-09-21T11:58:48.638Z,26.38
2018-09-21T12:01:16.921Z,26.43
2018-09-21T12:03:45.222Z,26.42
2018-09-21T12:06:13.506Z,26.41
2018-09-21T12:08:41.793Z,26.34
2018-09-21T12:11:10.091Z,26.43
2018-09-21T12:13:38.371Z,26.37
2018-09-21T12:16:06.766Z,26.40
2018-09-21T12:18:34.998Z,26.41
2018-09-21T12:21:03.298Z,26.27
2018-09-21T12:23:31.587Z,26.25
2018-09-21T12:25:59.882Z,26.29
2018-09-21T12:28:28.164Z,26.32
2018-09-21T12:30:56.485Z,26.31
2018-09-21T12:33:24.742Z,26.40
2018-09-21T12:35:53.088Z,26.48
2018-09-21T12:38:21.334Z,26.51
2018-09-21T12:40:49.634Z,26.52
2018-09-21T12:43:17.916Z,26.52
2018-09-21T12:45:46.197Z,26.67
2018-09-21T12:48:14.498Z,26.51
2018-09-21T12:50:42.845Z,26.35
2018-09-21T12:53:11.062Z,26.45
2018-09-21T12:55:39.366Z,26.34
2018-09-21T12:58:07.709Z,26.19
2018-09-21T13:00:35.953Z,25.97
2018-09-21T13:03:04.269Z,25.80
2018-09-21T13:05:32.630Z,25.77
2018-09-21T13:08:00.887Z,25.80
2018-09-21T13:10:29.192Z,25.71
2018-09-21T13:12:57.684Z,25.63
2018-09-21T13:15:26.182Z,25.74
2018-09-21T13:17:54.483Z,25.73
2018-09-21T13:20:22.758Z,25.77
2018-09-21T13:22:51.046Z,25.76
2018-09-21T13:25:19.342Z,25.84
2018-09-21T13:27:47.630Z,25.83
2018-09-21T13:30:15.914Z,25.84
2018-09-21T13:32:44.236Z,25.91
2018-09-21T13:35:12.515Z,25.87
2018-09-21T13:37:40.791Z,25.87
2018-09-21T13:40:09.098Z,25.84
2018-09-21T13:42:37.394Z,25.85
2018-09-21T13:45:05.675Z,25.74
2018-09-21T13:47:33.971Z,25.59
2018-09-21T13:50:02.251Z,25.36
2018-09-21T13:52:30.534Z,25.46
2018-09-21T13:54:58.835Z,25.45
2018-09-21T13:57:27.114Z,25.42
2018-09-21T13:59:55.407Z,25.37
2018-09-21T14:02:23.906Z,25.40
2018-09-21T14:04:52.186Z,25.48
2018-09-21T14:07:20.476Z,25.46
2018-09-21T14:09:48.762Z,25.49
2018-09-21T14:12:17.044Z,25.59
2018-09-21T14:14:45.326Z,25.42
2018-09-21T14:17:13.623Z,25.48
2018-09-21T14:19:41.908Z,25.33
2018-09-21T14:22:10.195Z,25.37
2018-09-21T14:24:38.491Z,25.29
2018-09-21T14:27:06.775Z,25.48
2018-09-21T14:29:35.058Z,25.53
2018-09-21T14:32:03.366Z,25.51
2018-09-21T14:34:31.653Z,25.46
2018-09-21T14:36:59.935Z,25.52
2018-09-21T14:39:28.273Z,25.46
2018-09-21T14:41:56.568Z,25.41
2018-09-21T14:44:24.845Z,25.50
2018-09-21T14:46:53.134Z,25.48
2018-09-21T14:49:21.546Z,25.51
2018-09-21T14:51:49.854Z,25.35
2018-09-21T14:54:18.154Z,25.32
2018-09-21T14:56:46.434Z,25.22
2018-09-21T14:59:14.706Z,25.23
2018-09-21T15:01:42.998Z,25.18
2018-09-21T15:04:11.278Z,25.13
2018-09-21T15:06:39.559Z,25.01
2018-09-21T15:09:07.852Z,24.95
2018-09-21T15:11:36.126Z,24.88
2018-09-21T15:14:04.407Z,24.91
2018-09-21T15:16:32.758Z,24.87
2018-09-21T15:19:00.978Z,24.89
2018-09-21T15:21:29.246Z,24.85
2018-09-21T15:23:57.535Z,24.84
2018-09-21T15:26:25.814Z,24.75
2018-09-21T15:28:54.086Z,24.70
2018-09-21T15:31:22.381Z,24.04
2018-09-21T15:33:50.663Z,23.24
2018-09-21T15:36:21.974Z,22.83
2018-09-21T15:38:50.268Z,22.59
2018-09-21T15:41:18.557Z,21.94
2018-09-21T15:43:46.938Z,20.80
2018-09-21T15:46:15.245Z,19.82
2018-09-21T15:48:43.566Z,18.69
2018-09-21T15:51:11.822Z,18.10
2018-09-21T15:53:40.118Z,17.75
2018-09-21T15:56:08.398Z,17.54
2018-09-21T15:58:36.691Z,17.40
2018-09-21T16:01:04.971Z,17.05
2018-09-21T16:03:33.246Z,17.01
2018-09-21T16:06:01.579Z,17.08
2018-09-21T16:08:29.806Z,17.25
2018-09-21T16:10:58.083Z,17.05
2018-09-21T16:13:26.362Z,16.98
2018-09-21T16:15:54.650Z,16.68
2018-09-21T16:18:22.922Z,16.67
2018-09-21T16:20:51.210Z,16.59
2018-09-21T16:23:19.507Z,16.70
2018-09-21T16:25:47.774Z,16.52
2018-09-21T16:28:16.052Z,16.42
2018-09-21T16:30:44.513Z,16.33
2018-09-21T16:33:12.753Z,16.12
2018-09-21T16:35:41.023Z,16.17
2018-09-21T16:38:09.310Z,16.17
2018-09-21T16:40:37.600Z,15.75
2018-09-21T16:43:05.894Z,15.73
2018-09-21T16:45:34.182Z,15.69
2018-09-21T16:48:02.534Z,15.57
2018-09-21T16:50:30.814Z,15.51
2018-09-21T16:52:59.115Z,15.64
2018-09-21T16:55:27.394Z,15.83
2018-09-21T16:57:55.716Z,15.84
2018-09-21T17:00:23.982Z,15.85
2018-09-21T17:02:52.258Z,15.99
2018-09-21T17:05:20.543Z,15.85
2018-09-21T17:07:48.855Z,15.99
2018-09-21T17:10:17.130Z,15.95
2018-09-21T17:12:45.413Z,15.94
2018-09-21T17:15:13.703Z,15.88
2018-09-21T17:17:41.976Z,15.97
2018-09-21T17:20:10.279Z,15.86
2018-09-21T17:22:38.551Z,15.73
2018-09-21T17:25:06.830Z,15.79
2018-09-21T17:27:35.124Z,15.87
2018-09-21T17:30:03.418Z,15.97
2018-09-21T17:32:31.704Z,15.94
2018-09-21T17:34:59.997Z,15.90
2018-09-21T17:37:28.327Z,15.99
2018-09-21T17:39:56.599Z,15.97
2018-09-21T17:42:24.864Z,15.99
2018-09-21T17:44:53.172Z,15.89
2018-09-21T17:47:21.446Z,16.00
2018-09-21T17:49:49.726Z,16.04
2018-09-21T17:52:18.019Z,15.85
2018-09-21T17:54:46.333Z,15.81
2018-09-21T17:57:14.611Z,15.84
2018-09-21T17:59:42.909Z,15.83
2018-09-21T18:02:11.203Z,15.70
2018-09-21T18:04:39.485Z,15.71
2018-09-21T18:07:07.788Z,15.60
2018-09-21T18:09:36.070Z,15.70
2018-09-21T18:12:04.347Z,15.74
2018-09-21T18:14:32.649Z,15.73
2018-09-21T18:17:00.935Z,15.62
2018-09-21T18:19:29.218Z,15.68
2018-09-21T18:21:57.506Z,15.74
2018-09-21T18:24:25.792Z,15.79
2018-09-21T18:26:54.082Z,15.60
2018-09-21T18:29:22.374Z,15.62
2018-09-21T18:31:50.647Z,15.58
2018-09-21T18:34:18.924Z,15.64
2018-09-21T18:36:47.232Z,15.54
2018-09-21T18:39:22.692Z,15.48
2018-09-21T18:41:52.143Z,15.56
2018-09-21T18:44:20.423Z,15.56
2018-09-21T18:46:48.703Z,15.57
2018-09-21T18:49:17.022Z,15.56
2018-09-21T18:51:45.319Z,15.51
2018-09-21T18:54:13.645Z,15.46
2018-09-21T18:56:41.928Z,15.46
2018-09-21T18:59:10.284Z,15.54
2018-09-21T19:01:38.742Z,15.48
2018-09-21T19:04:07.058Z,15.38
2018-09-21T19:06:35.314Z,15.50
2018-09-21T19:09:03.623Z,15.51
2018-09-21T19:11:31.920Z,15.47
2018-09-21T19:14:00.206Z,15.44
2018-09-21T19:16:28.484Z,15.27
2018-09-21T19:18:56.803Z,15.40
2018-09-21T19:21:25.066Z,15.44
2018-09-21T19:23:53.363Z,15.43
2018-09-21T19:26:21.689Z,15.42
2018-09-21T19:28:49.939Z,15.33
2018-09-21T19:31:18.218Z,15.39
2018-09-21T19:33:46.517Z,15.32
2018-09-21T19:36:14.818Z,15.31
2018-09-21T19:38:43.249Z,15.39
2018-09-21T19:41:11.418Z,15.45
2018-09-21T19:43:39.705Z,15.39
2018-09-21T19:46:07.986Z,15.37
2018-09-21T19:48:36.290Z,15.43
2018-09-21T19:51:04.570Z,15.37
2018-09-21T19:53:32.866Z,15.39
2018-09-21T19:56:01.163Z,15.42
2018-09-21T19:58:29.447Z,15.38
2018-09-21T20:00:57.727Z,15.37
2018-09-21T20:03:26.060Z,15.32
2018-09-21T20:05:54.311Z,15.42
2018-09-21T20:08:22.590Z,15.58
2018-09-21T20:10:50.891Z,15.61
2018-09-21T20:13:19.177Z,15.63
2018-09-21T20:15:47.472Z,15.58
2018-09-21T20:18:15.767Z,15.66
2018-09-21T20:20:44.047Z,15.63
2018-09-21T20:23:12.342Z,15.62
2018-09-21T20:25:40.630Z,15.60
2018-09-21T20:28:08.906Z,15.69
2018-09-21T20:30:37.194Z,15.66
2018-09-21T20:36:06.747Z,15.55
2018-09-21T20:38:35.040Z,15.54
2018-09-21T20:41:03.334Z,15.48
2018-09-21T20:43:31.635Z,15.59
2018-09-21T20:46:00.072Z,15.58
2018-09-21T20:48:28.335Z,15.62
2018-09-21T20:50:56.619Z,15.67
2018-09-21T20:53:24.915Z,15.71
2018-09-21T20:55:53.195Z,15.79
2018-09-21T20:58:21.471Z,15.84
2018-09-21T21:00:49.789Z,15.61
2018-09-21T21:03:18.067Z,15.63
2018-09-21T21:05:46.364Z,15.72
2018-09-21T21:08:14.671Z,15.72
2018-09-21T21:10:42.951Z,15.68
2018-09-21T21:13:11.286Z,15.54
2018-09-21T21:15:39.578Z,15.69
2018-09-21T21:18:07.801Z,15.58
2018-09-21T21:20:36.091Z,15.75
2018-09-21T21:23:04.376Z,15.64
2018-09-21T21:25:33.641Z,15.54
2018-09-21T21:28:01.939Z,15.66
2018-09-21T21:30:30.246Z,15.60
2018-09-21T21:32:58.535Z,15.68
2018-09-21T21:35:26.822Z,15.66
2018-09-21T21:37:55.141Z,15.61
2018-09-21T21:40:23.427Z,15.75
2018-09-21T21:42:51.695Z,15.70
2018-09-21T21:45:19.986Z,15.69
2018-09-21T21:47:48.270Z,15.68
2018-09-21T21:50:16.749Z,15.61
2018-09-21T21:52:45.057Z,15.65
2018-09-21T21:55:13.331Z,15.57
2018-09-21T21:57:41.614Z,15.57
2018-09-21T22:00:09.914Z,15.61
2018-09-21T22:02:38.203Z,15.66
2018-09-21T22:05:06.485Z,15.60
2018-09-21T22:07:34.803Z,15.70
2018-09-21T22:10:03.177Z,15.69
2018-09-21T22:12:37.134Z,15.66
2018-09-21T22:15:05.403Z,15.61
2018-09-21T22:17:33.687Z,15.56
2018-09-21T22:20:01.975Z,15.64
2018-09-21T22:22:30.258Z,15.62
2018-09-21T22:24:58.558Z,15.66
2018-09-21T22:27:26.839Z,15.61
2018-09-21T22:29:55.116Z,15.57
2018-09-21T22:32:23.398Z,15.66
2018-09-21T22:34:51.687Z,15.61
2018-09-21T22:37:19.986Z,15.51
2018-09-21T22:39:48.419Z,15.52
2018-09-21T22:42:16.702Z,15.53
2018-09-21T22:44:45.006Z,15.47
2018-09-21T22:47:13.320Z,15.54
2018-09-21T22:49:42.059Z,15.53
2018-09-21T22:52:10.398Z,15.46
2018-09-21T22:54:38.679Z,15.45
2018-09-21T22:57:07.152Z,15.56
2018-09-21T22:59:35.446Z,15.46
2018-09-21T23:02:03.730Z,15.42
2018-09-21T23:04:32.007Z,15.42
2018-09-21T23:07:00.412Z,15.38
2018-09-21T23:09:28.671Z,15.29
2018-09-21T23:11:57.118Z,15.33
2018-09-21T23:14:25.468Z,15.36
2018-09-21T23:16:53.760Z,15.36
2018-09-21T23:19:22.862Z,15.34
2018-09-21T23:21:51.149Z,15.30
2018-09-21T23:24:19.501Z,15.28
2018-09-21T23:26:47.770Z,15.21
2018-09-21T23:29:16.068Z,15.27
2018-09-21T23:31:44.410Z,15.21
2018-09-21T23:34:12.690Z,15.07
2018-09-21T23:36:41.078Z,15.10
2018-09-21T23:39:09.358Z,15.07
2018-09-21T23:41:37.706Z,15.15
2018-09-21T23:44:05.986Z,15.14
2018-09-21T23:46:34.274Z,15.02
2018-09-21T23:49:02.581Z,14.86
2018-09-21T23:51:30.882Z,15.00
2018-09-21T23:53:59.206Z,14.93
2018-09-21T23:56:27.489Z,14.82
2018-09-21T23:58:55.778Z,14.85
